Time;durP1;ratioP1;P1;durP2;ratioP2;P2;SDS_P1;SDS_P2;PMS_P1;PMS_P2;Temp;Humidity;BMP_temperature;BMP_pressure;BME280_temperature;BME280_humidity;BME280_pressure;Samples;Min_cycle;Max_cycle;Signal;HPM_P1;HPM_P2
2023/11/29 00:02:12;;;;;;;16.88;8.80;;;;;;;-1.46;93.86;99200.75;10357839;28;20433;-79
2023/11/29 00:07:15;;;;;;;22.13;9.68;;;;;;;-1.74;97.77;99196.03;10366774;28;20052;-78
2023/11/29 00:12:18;;;;;;;18.33;10.13;;;;;;;-1.77;100.00;99204.06;10352891;28;20046;-79
2023/11/29 00:17:23;;;;;;;22.42;11.95;;;;;;;-1.87;100.00;99195.75;10357653;28;20049;-77
2023/11/29 00:22:26;;;;;;;24.27;9.90;;;;;;;-1.69;100.00;99188.75;10364278;28;20058;-78
2023/11/29 00:27:29;;;;;;;21.63;11.25;;;;;;;-1.75;100.00;99177.69;10349305;28;20049;-78
2023/11/29 00:32:33;;;;;;;25.65;13.27;;;;;;;-1.73;100.00;99181.91;10364124;28;20881;-78
2023/11/29 00:37:36;;;;;;;24.48;13.77;;;;;;;-1.60;100.00;99176.06;10359009;28;20054;-79
2023/11/29 00:42:39;;;;;;;20.63;10.82;;;;;;;-1.88;100.00;99175.63;10350880;28;20045;-79
2023/11/29 00:47:44;;;;;;;22.38;11.75;;;;;;;-1.65;100.00;99163.97;10355189;28;20050;-79
2023/11/29 00:52:47;;;;;;;24.25;12.25;;;;;;;-1.76;100.00;99166.28;10364488;28;20049;-79
2023/11/29 00:57:50;;;;;;;32.05;17.05;;;;;;;-1.42;100.00;99159.34;10358376;28;20041;-78
2023/11/29 01:02:54;;;;;;;29.58;14.73;;;;;;;-1.53;100.00;99164.28;10357074;28;20049;-78
2023/11/29 01:08:01;;;;;;;32.22;17.77;;;;;;;-1.52;100.00;99163.34;10368972;28;20076;-78
2023/11/29 01:13:04;;;;;;;29.70;14.93;;;;;;;-1.54;100.00;99158.16;10347110;28;20057;-79
2023/11/29 01:18:08;;;;;;;32.17;16.25;;;;;;;-1.49;100.00;99137.69;10365392;28;20042;-79
2023/11/29 01:23:11;;;;;;;30.80;13.73;;;;;;;-1.57;100.00;99139.03;10352517;28;20050;-79
2023/11/29 01:28:16;;;;;;;32.40;15.18;;;;;;;-1.32;100.00;99125.44;10345855;28;20129;-78
2023/11/29 01:33:21;;;;;;;20.73;10.35;;;;;;;-1.63;100.00;99141.03;10357657;28;20046;-79
2023/11/29 01:38:24;;;;;;;30.20;14.48;;;;;;;-1.38;100.00;99131.03;10353897;28;20061;-78
2023/11/29 01:43:27;;;;;;;24.38;12.27;;;;;;;-1.33;100.00;99126.38;10351746;28;20061;-78
2023/11/29 01:48:32;;;;;;;30.67;11.95;;;;;;;-1.25;100.00;99134.75;10380124;28;20053;-78
2023/11/29 01:53:35;;;;;;;33.13;14.93;;;;;;;-1.10;100.00;99099.66;10371651;28;20057;-79
2023/11/29 01:58:41;;;;;;;27.58;14.43;;;;;;;-1.32;100.00;99101.72;10356940;28;20447;-78
2023/11/29 02:03:46;;;;;;;31.02;15.02;;;;;;;-1.26;100.00;99096.13;10356069;28;20045;-79
2023/11/29 02:08:49;;;;;;;39.17;18.85;;;;;;;-1.29;100.00;99088.41;10353646;28;20065;-78
2023/11/29 02:13:52;;;;;;;40.67;18.70;;;;;;;-1.01;100.00;99071.97;10344752;28;20646;-79
2023/11/29 02:18:56;;;;;;;36.55;17.48;;;;;;;-0.89;100.00;99063.38;10359640;28;20041;-79
2023/11/29 02:24:04;;;;;;;39.75;17.40;;;;;;;-0.99;100.00;99065.69;10358475;28;21781;-78
2023/11/29 02:29:09;;;;;;;31.55;13.93;;;;;;;-1.15;100.00;99045.50;10357552;28;20037;-78
2023/11/29 02:34:12;;;;;;;28.02;13.38;;;;;;;-1.32;100.00;99036.72;10352353;28;20049;-79
2023/11/29 02:39:15;;;;;;;26.23;12.98;;;;;;;-1.20;100.00;99038.72;10361201;28;20553;-79
2023/11/29 02:44:20;;;;;;;31.15;15.18;;;;;;;-1.09;100.00;99019.69;10352135;28;20053;-78
2023/11/29 02:49:23;;;;;;;30.10;15.38;;;;;;;-0.86;100.00;98999.09;10355800;28;20461;-79
2023/11/29 02:54:27;;;;;;;35.90;18.05;;;;;;;-0.81;100.00;98991.78;10364392;28;20807;-78
2023/11/29 02:59:31;;;;;;;33.70;15.00;;;;;;;-0.75;100.00;98988.78;10345357;28;20077;-79
2023/11/29 03:04:34;;;;;;;26.20;11.40;;;;;;;-1.02;100.00;98999.94;10365840;28;20087;-78
2023/11/29 03:09:39;;;;;;;36.42;17.20;;;;;;;-0.80;100.00;98996.13;10361336;28;20045;-78
2023/11/29 03:14:43;;;;;;;38.80;18.13;;;;;;;-0.86;100.00;98978.84;10359983;28;20053;-78
2023/11/29 03:19:46;;;;;;;35.10;16.75;;;;;;;-0.93;100.00;98972.25;10362030;28;20046;-79
2023/11/29 03:24:49;;;;;;;31.38;15.65;;;;;;;-0.97;100.00;98952.25;10362637;28;20065;-79
2023/11/29 03:29:55;;;;;;;39.28;18.60;;;;;;;-0.91;100.00;98945.78;10362554;28;20116;-79
2023/11/29 03:34:58;;;;;;;24.40;13.27;;;;;;;-1.06;100.00;98947.50;10357994;28;20160;-78
2023/11/29 03:40:01;;;;;;;32.00;14.25;;;;;;;-0.89;100.00;98943.91;10369973;28;20053;-78
2023/11/29 03:45:06;;;;;;;36.53;17.45;;;;;;;-0.60;100.00;98931.72;10358933;28;20052;-79
2023/11/29 03:50:09;;;;;;;32.00;14.07;;;;;;;-0.86;100.00;98930.56;10355741;28;20042;-78
2023/11/29 03:55:12;;;;;;;41.40;19.23;;;;;;;-0.61;100.00;98922.91;10364927;28;20056;-78
2023/11/29 04:00:18;;;;;;;39.08;18.08;;;;;;;-0.61;100.00;98909.72;10355814;28;20057;-77
2023/11/29 04:05:23;;;;;;;28.58;13.80;;;;;;;-0.73;100.00;98890.22;10380250;28;20050;-78
2023/11/29 04:10:29;;;;;;;37.30;17.15;;;;;;;-0.79;100.00;98906.38;10358384;28;20452;-78
2023/11/29 04:15:33;;;;;;;29.95;16.17;;;;;;;-0.46;100.00;98884.25;10359372;28;20052;-77
2023/11/29 04:20:36;;;;;;;34.47;18.05;;;;;;;-0.40;100.00;98877.75;10356525;28;20126;-78
2023/11/29 04:25:40;;;;;;;35.85;15.02;;;;;;;-0.66;100.00;98874.03;10364970;28;20625;-78
2023/11/29 04:30:44;;;;;;;37.65;15.68;;;;;;;-0.48;100.00;98882.66;10361252;28;20054;-77
2023/11/29 04:35:47;;;;;;;34.13;14.27;;;;;;;-0.66;100.00;98874.88;10358963;28;20421;-78
2023/11/29 04:40:51;;;;;;;28.10;12.48;;;;;;;-0.57;100.00;98858.50;10364426;28;20092;-78
2023/11/29 04:45:55;;;;;;;31.98;15.00;;;;;;;-0.68;100.00;98846.91;10354157;28;21236;-78
2023/11/29 04:50:58;;;;;;;27.42;13.10;;;;;;;-0.59;100.00;98843.72;10348751;28;20053;-78
2023/11/29 04:56:01;;;;;;;32.80;15.20;;;;;;;-0.65;100.00;98842.28;10360820;28;20049;-78
2023/11/29 05:01:07;;;;;;;27.17;12.40;;;;;;;-0.84;100.00;98837.25;10351917;28;20046;-78
2023/11/29 05:06:10;;;;;;;28.65;14.93;;;;;;;-0.72;100.00;98825.97;10355195;28;20132;-78
2023/11/29 05:11:13;;;;;;;17.88;7.55;;;;;;;-0.72;100.00;98822.50;10359867;28;20072;-78
2023/11/29 05:16:18;;;;;;;26.20;14.38;;;;;;;-0.67;100.00;98814.31;10360636;28;20424;-78
2023/11/29 05:21:21;;;;;;;30.08;14.23;;;;;;;-0.57;100.00;98818.09;10355390;28;20045;-78
2023/11/29 05:26:24;;;;;;;24.15;11.20;;;;;;;-0.91;100.00;98817.44;10359199;28;20049;-78
2023/11/29 05:31:30;;;;;;;32.70;15.02;;;;;;;-0.65;100.00;98802.75;10346489;28;20124;-78
2023/11/29 05:36:33;;;;;;;25.42;12.45;;;;;;;-0.70;100.00;98814.50;10354536;28;20060;-78
2023/11/29 05:41:35;;;;;;;34.13;16.52;;;;;;;-1.09;100.00;98808.00;10355769;28;20057;-77
2023/11/29 05:46:40;;;;;;;25.67;13.15;;;;;;;-0.79;100.00;98797.44;10346497;28;21429;-78
2023/11/29 05:51:43;;;;;;;28.00;14.60;;;;;;;-1.03;100.00;98794.47;10349331;28;20143;-78
2023/11/29 05:56:48;;;;;;;24.73;12.35;;;;;;;-1.21;100.00;98788.47;10358980;28;20044;-78
2023/11/29 06:01:54;;;;;;;34.40;15.30;;;;;;;-1.03;100.00;98797.94;10362041;28;20561;-78
2023/11/29 06:06:57;;;;;;;35.70;16.52;;;;;;;-0.93;100.00;98795.63;10353040;28;20052;-77
2023/11/29 06:12:01;;;;;;;41.90;15.93;;;;;;;-0.77;100.00;98791.16;10366831;28;20489;-78
2023/11/29 06:17:06;;;;;;;32.42;16.67;;;;;;;-0.60;100.00;98782.22;10404033;28;20076;-78
2023/11/29 06:22:15;;;;;;;29.98;14.73;;;;;;;-0.84;100.00;98788.97;10360972;28;20049;-78
2023/11/29 06:27:18;;;;;;;33.40;16.10;;;;;;;-0.77;100.00;98783.22;10362144;28;20076;-78
2023/11/29 06:32:23;;;;;;;35.28;17.25;;;;;;;-0.69;100.00;98787.19;10350764;28;20057;-78
2023/11/29 06:37:26;;;;;;;33.92;17.27;;;;;;;-0.74;100.00;98780.41;10358608;28;20141;-78
2023/11/29 06:42:29;;;;;;;25.10;11.57;;;;;;;-0.99;100.00;98781.03;10359866;28;20049;-78
2023/11/29 06:47:34;;;;;;;33.30;14.52;;;;;;;-0.87;100.00;98782.06;10373021;28;20045;-78
2023/11/29 06:52:38;;;;;;;32.05;14.10;;;;;;;-0.84;100.00;98776.63;10363348;28;20054;-79
2023/11/29 06:57:41;;;;;;;45.42;21.42;;;;;;;-0.77;100.00;98770.06;10371974;28;21173;-79
2023/11/29 07:02:45;;;;;;;36.40;17.30;;;;;;;-0.77;100.00;98767.41;10364778;28;20111;-79
2023/11/29 07:07:50;;;;;;;44.70;22.40;;;;;;;-0.78;100.00;98764.84;10366730;28;20047;-79
2023/11/29 07:12:55;;;;;;;26.40;14.25;;;;;;;-0.61;100.00;98769.09;10369821;28;20045;-79
2023/11/29 07:18:01;;;;;;;24.00;13.25;;;;;;;-0.62;100.00;98746.31;10355956;28;20046;-79
2023/11/29 07:23:04;;;;;;;40.25;19.52;;;;;;;-0.56;100.00;98757.34;10361688;28;20049;-80
2023/11/29 07:28:07;;;;;;;33.58;16.15;;;;;;;-0.63;100.00;98756.03;10368359;28;20064;-79
2023/11/29 07:33:12;;;;;;;32.25;16.77;;;;;;;-0.45;100.00;98763.75;10366492;28;20046;-78
2023/11/29 07:38:15;;;;;;;17.63;8.25;;;;;;;-0.95;100.00;98753.53;10354668;28;20049;-80
2023/11/29 07:43:19;;;;;;;18.55;9.85;;;;;;;-1.05;100.00;98760.28;10378097;28;20049;-80
2023/11/29 07:48:24;;;;;;;31.38;17.67;;;;;;;-0.70;100.00;98754.69;10374985;28;20060;-81
2023/11/29 07:53:28;;;;;;;31.50;15.18;;;;;;;-0.44;100.00;98742.53;10358534;28;20117;-80
2023/11/29 07:58:32;;;;;;;20.25;11.18;;;;;;;-0.63;100.00;98747.25;10377887;28;20049;-80
2023/11/29 08:03:41;;;;;;;31.50;16.35;;;;;;;-0.62;100.00;98738.41;10382410;28;20049;-84
2023/11/29 08:08:44;;;;;;;28.80;14.77;;;;;;;-0.35;100.00;98742.00;10374547;28;20148;-85
2023/11/29 08:13:47;;;;;;;27.27;14.40;;;;;;;-0.37;100.00;98738.59;10375664;28;20057;-85
2023/11/29 08:18:52;;;;;;;18.33;8.68;;;;;;;-0.27;100.00;98738.88;10368639;28;20080;-84
2023/11/29 08:23:55;;;;;;;22.77;11.68;;;;;;;-0.50;100.00;98737.66;10366819;28;20135;-82
2023/11/29 08:28:59;;;;;;;34.28;18.63;;;;;;;-0.09;100.00;98736.84;10386452;28;20088;-81
2023/11/29 08:34:03;;;;;;;32.83;17.92;;;;;;;-0.07;100.00;98724.41;10370648;28;20049;-82
2023/11/29 08:39:06;;;;;;;29.98;15.73;;;;;;;-0.42;100.00;98721.34;10371596;28;20049;-82
2023/11/29 08:44:12;;;;;;;22.88;11.30;;;;;;;-0.32;100.00;98736.50;10374420;28;20042;-79
2023/11/29 08:49:16;;;;;;;21.00;11.27;;;;;;;-0.61;100.00;98740.94;10372764;28;20060;-80
2023/11/29 08:54:20;;;;;;;25.70;13.50;;;;;;;-0.65;100.00;98736.81;10372807;28;20071;-79
2023/11/29 08:59:23;;;;;;;40.55;17.33;;;;;;;-0.37;100.00;98716.63;10374840;28;21352;-79
2023/11/29 09:04:28;;;;;;;34.45;17.45;;;;;;;-0.43;100.00;98717.03;10368941;28;20605;-79
2023/11/29 09:09:30;;;;;;;28.63;12.32;;;;;;;-0.60;100.00;98720.72;10372328;28;20100;-79
2023/11/29 09:14:34;;;;;;;19.67;8.73;;;;;;;-0.24;100.00;98719.38;10370039;28;20045;-80
2023/11/29 09:19:39;;;;;;;40.70;21.30;;;;;;;-0.11;100.00;98712.34;10370780;28;20099;-80
2023/11/29 09:24:42;;;;;;;43.33;21.08;;;;;;;-0.53;100.00;98729.94;10383307;28;20060;-79
2023/11/29 09:29:45;;;;;;;32.60;15.13;;;;;;;-0.44;100.00;98731.97;10392461;28;20052;-80
2023/11/29 09:34:50;;;;;;;39.08;19.02;;;;;;;-0.34;100.00;98719.09;10382291;28;20053;-79
2023/11/29 09:39:53;;;;;;;27.20;14.80;;;;;;;-0.52;100.00;98729.84;10362401;28;20076;-79
2023/11/29 09:44:58;;;;;;;33.97;15.80;;;;;;;-0.53;100.00;98741.31;10363860;28;20509;-80
2023/11/29 09:50:03;;;;;;;31.25;17.52;;;;;;;-0.62;100.00;98698.84;10378565;28;20065;-80
2023/11/29 09:55:07;;;;;;;24.45;14.68;;;;;;;-0.48;100.00;98704.13;10366875;28;20048;-78
2023/11/29 10:00:14;;;;;;;27.33;15.55;;;;;;;-0.58;100.00;98737.28;10368314;28;20064;-81
2023/11/29 10:05:18;;;;;;;27.15;16.30;;;;;;;-0.52;100.00;98721.09;10372656;28;20049;-79
2023/11/29 10:10:21;;;;;;;24.40;13.38;;;;;;;-0.40;100.00;98728.22;10373087;28;20598;-80
2023/11/29 10:15:24;;;;;;;23.50;15.27;;;;;;;-0.30;100.00;98737.28;10388459;28;20064;-80
2023/11/29 10:20:29;;;;;;;16.27;10.85;;;;;;;-0.34;100.00;98740.19;10381531;28;20116;-79
2023/11/29 10:25:33;;;;;;;10.20;5.90;;;;;;;-0.70;100.00;98741.50;10390073;28;20072;-79
2023/11/29 10:30:36;;;;;;;12.30;8.45;;;;;;;-0.43;100.00;98764.50;10386636;28;20393;-79
2023/11/29 10:35:42;;;;;;;17.45;11.75;;;;;;;-0.23;100.00;98742.16;10385894;28;20056;-79
2023/11/29 10:40:46;;;;;;;14.98;8.55;;;;;;;-0.58;100.00;98748.66;10392035;28;20071;-79
2023/11/29 10:45:52;;;;;;;16.05;9.68;;;;;;;-0.06;100.00;98748.06;10384632;28;20045;-78
2023/11/29 10:50:58;;;;;;;16.17;9.15;;;;;;;0.00;100.00;98762.69;10352501;28;20149;-79
2023/11/29 10:56:03;;;;;;;12.13;5.75;;;;;;;0.02;100.00;98768.69;10395047;28;20065;-78
2023/11/29 11:01:09;;;;;;;10.98;7.30;;;;;;;-0.02;100.00;98772.50;10376886;28;20041;-79
2023/11/29 11:06:36;;;;;;;10.02;6.65;;;;;;;-0.21;100.00;98775.44;10366114;28;20049;-78
2023/11/29 11:11:44;;;;;;;11.90;7.38;;;;;;;-0.16;100.00;98798.91;10359470;28;20180;-78
2023/11/29 11:16:58;;;;;;;18.92;7.72;;;;;;;-0.19;100.00;98785.88;10361754;28;20049;-78
2023/11/29 11:22:04;;;;;;;10.15;6.45;;;;;;;-0.51;100.00;98801.91;10360050;28;20037;-78
2023/11/29 11:27:08;;;;;;;8.68;6.00;;;;;;;-0.17;100.00;98807.75;10356292;28;20049;-79
2023/11/29 11:32:11;;;;;;;13.93;7.50;;;;;;;-0.46;100.00;98818.31;10363645;28;20049;-78
2023/11/29 11:37:15;;;;;;;7.25;5.40;;;;;;;-0.60;100.00;98810.38;10375855;28;20669;-79
2023/11/29 11:42:18;;;;;;;11.18;6.25;;;;;;;-0.58;100.00;98825.16;10373369;28;20544;-79
2023/11/29 11:47:21;;;;;;;15.48;8.02;;;;;;;-0.46;100.00;98831.50;10376828;28;20537;-78
2023/11/29 11:52:26;;;;;;;12.85;8.10;;;;;;;-0.61;100.00;98830.59;10373556;28;20060;-79
2023/11/29 11:57:30;;;;;;;13.82;7.72;;;;;;;-0.29;100.00;98847.16;10376529;28;20053;-78
2023/11/29 12:02:34;;;;;;;11.07;7.97;;;;;;;0.01;100.00;98856.78;10369410;28;20052;-82
2023/11/29 12:07:40;;;;;;;12.52;7.63;;;;;;;0.05;100.00;98862.69;10374232;28;20743;-78
2023/11/29 12:12:44;;;;;;;12.07;8.27;;;;;;;0.28;100.00;98870.06;10376219;28;20133;-79
2023/11/29 12:17:48;;;;;;;9.77;6.07;;;;;;;0.94;91.02;98880.84;10370966;28;20054;-79
2023/11/29 12:22:53;;;;;;;7.72;5.78;;;;;;;0.08;94.42;98883.63;10381059;28;20052;-79
2023/11/29 12:27:55;;;;;;;10.05;7.57;;;;;;;0.07;95.20;98881.94;10386744;28;20056;-80
2023/11/29 12:32:59;;;;;;;9.98;6.68;;;;;;;-0.26;95.75;98895.41;10366402;28;21169;-80
2023/11/29 12:38:03;;;;;;;10.38;6.85;;;;;;;-0.04;95.34;98897.59;10381531;28;20054;-80
2023/11/29 12:43:07;;;;;;;7.60;6.18;;;;;;;0.06;93.08;98901.38;10381541;28;20050;-79
2023/11/29 12:48:11;;;;;;;10.18;5.85;;;;;;;0.42;90.14;98922.03;10382257;28;20045;-77
2023/11/29 12:53:16;;;;;;;7.35;4.97;;;;;;;-0.12;84.96;98930.56;10409958;28;20077;-80
2023/11/29 12:58:19;;;;;;;4.63;3.45;;;;;;;-0.35;86.40;98936.38;10361922;28;20057;-79
2023/11/29 13:03:22;;;;;;;6.85;4.10;;;;;;;0.09;83.17;98948.72;10373401;28;20064;-78
2023/11/29 13:08:26;;;;;;;6.07;4.43;;;;;;;0.04;82.70;98964.81;10373906;28;20090;-81
2023/11/29 13:13:29;;;;;;;8.57;4.63;;;;;;;0.73;81.58;98963.22;10375535;28;21220;-79
2023/11/29 13:18:32;;;;;;;5.50;4.57;;;;;;;-0.05;83.70;98986.50;10373401;28;20044;-80
2023/11/29 13:23:37;;;;;;;6.63;4.47;;;;;;;-0.10;82.61;98993.84;10367967;28;20088;-80
2023/11/29 13:28:40;;;;;;;7.60;4.65;;;;;;;-0.46;85.14;98996.84;10370068;28;20045;-81
2023/11/29 13:33:45;;;;;;;6.28;4.75;;;;;;;-0.56;87.19;98994.72;10368078;28;20053;-78
2023/11/29 13:38:52;;;;;;;9.55;5.53;;;;;;;-0.02;86.66;99001.31;10361602;28;20054;-80
2023/11/29 13:43:55;;;;;;;8.52;5.25;;;;;;;-0.12;84.64;99017.69;10359253;28;20045;-78
2023/11/29 13:48:58;;;;;;;6.93;3.65;;;;;;;-0.77;82.96;99020.53;10365689;28;20060;-80
2023/11/29 13:54:03;;;;;;;7.97;3.97;;;;;;;0.00;84.90;99021.41;10372551;28;20048;-80
2023/11/29 13:59:06;;;;;;;8.68;4.40;;;;;;;-0.25;83.57;99026.41;10361806;28;20191;-80
2023/11/29 14:04:09;;;;;;;6.18;3.72;;;;;;;0.01;83.31;99031.03;10368570;28;20593;-80
2023/11/29 14:09:14;;;;;;;9.18;3.92;;;;;;;-0.45;81.86;99035.47;10357982;28;20046;-81
2023/11/29 14:14:18;;;;;;;4.72;3.08;;;;;;;-0.38;80.54;99040.31;10355967;28;20504;-80
2023/11/29 14:19:24;;;;;;;5.75;3.63;;;;;;;-0.31;80.56;99048.72;10368258;28;20504;-79
2023/11/29 14:24:28;;;;;;;5.63;3.58;;;;;;;-0.33;82.13;99055.88;10381005;28;20050;-79
2023/11/29 14:29:32;;;;;;;5.97;3.67;;;;;;;-0.28;82.60;99054.66;10358694;28;20872;-81
2023/11/29 14:34:35;;;;;;;6.15;3.75;;;;;;;-0.02;82.74;99062.03;10363709;28;21145;-80
2023/11/29 14:39:41;;;;;;;6.55;4.55;;;;;;;-0.11;83.01;99061.63;10357655;28;20056;-80
2023/11/29 14:44:43;;;;;;;6.82;4.68;;;;;;;-0.25;83.68;99073.91;10367187;28;20041;-79
2023/11/29 14:49:46;;;;;;;8.15;4.35;;;;;;;-0.43;84.54;99074.03;10390911;28;20149;-81
2023/11/29 14:54:51;;;;;;;9.88;4.88;;;;;;;-0.38;84.52;99073.78;10355624;28;20795;-79
2023/11/29 14:59:54;;;;;;;6.68;4.78;;;;;;;-0.37;85.31;99078.09;10350855;28;20065;-78
2023/11/29 15:04:57;;;;;;;7.88;5.22;;;;;;;-0.40;85.81;99084.41;10384014;28;20107;-79
2023/11/29 15:10:01;;;;;;;11.18;5.40;;;;;;;-0.37;86.14;99086.88;10363012;28;20041;-79
2023/11/29 15:15:05;;;;;;;12.13;5.10;;;;;;;-0.40;86.30;99084.41;10357702;28;20052;-80
2023/11/29 15:20:10;;;;;;;10.63;4.60;;;;;;;-0.48;86.32;99094.53;10369177;28;20046;-79
2023/11/29 15:25:16;;;;;;;11.35;5.07;;;;;;;-0.32;87.66;99100.66;10357268;28;20041;-79
2023/11/29 15:30:22;;;;;;;8.85;5.03;;;;;;;-0.23;88.32;99101.91;10364822;28;20041;-79
2023/11/29 15:35:25;;;;;;;7.95;5.18;;;;;;;-0.24;88.26;99096.75;10366143;28;21683;-79
2023/11/29 15:40:30;;;;;;;12.45;6.30;;;;;;;-0.36;89.04;99107.03;10367691;28;20057;-79
2023/11/29 15:45:33;;;;;;;9.65;5.85;;;;;;;-0.24;89.17;99099.38;10360657;28;20053;-79
2023/11/29 15:50:36;;;;;;;11.77;6.30;;;;;;;-0.33;88.73;99100.72;10360902;28;20041;-79
2023/11/29 15:55:40;;;;;;;9.90;6.25;;;;;;;-0.22;90.38;99108.03;10358761;28;20109;-79
2023/11/29 16:00:43;;;;;;;8.55;6.28;;;;;;;-0.19;90.67;99110.50;10358041;28;20152;-78
2023/11/29 16:05:47;;;;;;;8.93;6.35;;;;;;;-0.15;90.95;99102.31;10364024;28;20423;-79
2023/11/29 16:10:51;;;;;;;11.30;6.45;;;;;;;-0.16;91.47;99105.06;10366903;28;20531;-78
2023/11/29 16:15:54;;;;;;;8.05;5.65;;;;;;;-0.12;91.65;99106.56;10354879;28;20041;-80
2023/11/29 16:20:57;;;;;;;9.55;6.03;;;;;;;-0.12;90.66;99109.22;10368037;28;20287;-79
2023/11/29 16:26:02;;;;;;;11.30;6.82;;;;;;;-0.10;89.78;99110.00;10366478;28;20062;-79
2023/11/29 16:31:06;;;;;;;9.52;6.90;;;;;;;-0.16;88.37;99107.72;10367322;28;20042;-78
2023/11/29 16:36:10;;;;;;;9.82;6.70;;;;;;;-0.10;88.28;99110.84;10375494;28;20120;-78
2023/11/29 16:41:15;;;;;;;14.05;7.32;;;;;;;-0.07;89.04;99108.00;10374895;28;20052;-80
2023/11/29 16:46:18;;;;;;;14.90;7.53;;;;;;;-0.02;89.32;99105.13;10370471;28;20053;-77
2023/11/29 16:51:26;;;;;;;11.15;5.97;;;;;;;-0.04;87.74;99106.16;10374326;28;20049;-79
2023/11/29 16:56:30;;;;;;;14.77;8.65;;;;;;;-0.03;87.47;99110.47;10381444;28;20052;-79
2023/11/29 17:01:33;;;;;;;14.07;8.23;;;;;;;-0.07;86.22;99108.00;10369573;28;20053;-78
2023/11/29 17:06:36;;;;;;;14.27;8.85;;;;;;;-0.05;86.13;99102.66;10363321;28;20042;-78
2023/11/29 17:11:40;;;;;;;15.07;8.10;;;;;;;0.05;86.97;99113.53;10371925;28;20056;-79
2023/11/29 17:16:43;;;;;;;14.55;8.40;;;;;;;0.02;85.89;99121.63;10391063;28;20127;-78
2023/11/29 17:21:47;;;;;;;12.77;7.22;;;;;;;-0.15;85.06;99120.81;10374174;28;20168;-79
2023/11/29 17:26:52;;;;;;;9.65;5.78;;;;;;;-0.13;84.14;99126.00;10357600;28;20057;-79
2023/11/29 17:31:55;;;;;;;13.00;7.38;;;;;;;0.06;84.58;99124.00;10367465;28;20045;-78
2023/11/29 17:36:58;;;;;;;12.18;7.15;;;;;;;0.19;84.72;99124.13;10359577;28;20597;-79
2023/11/29 17:42:02;;;;;;;15.77;8.60;;;;;;;0.24;85.05;99118.59;10358502;28;20056;-79
2023/11/29 17:47:06;;;;;;;12.60;7.82;;;;;;;0.26;86.24;99128.13;10373480;28;20184;-79
2023/11/29 17:52:09;;;;;;;14.65;8.13;;;;;;;0.27;86.11;99118.41;10375451;28;20041;-80
2023/11/29 17:57:13;;;;;;;13.38;8.20;;;;;;;0.25;86.21;99115.88;10374191;28;20041;-80
2023/11/29 18:02:16;;;;;;;16.05;8.88;;;;;;;0.26;87.05;99119.34;10376413;28;20147;-80
2023/11/29 18:07:19;;;;;;;15.35;8.88;;;;;;;0.30;88.94;99116.47;10380601;28;20049;-78
2023/11/29 18:12:24;;;;;;;13.82;9.73;;;;;;;0.27;89.05;99121.06;10365415;28;20046;-79
2023/11/29 18:17:27;;;;;;;14.23;8.65;;;;;;;0.26;90.07;99133.41;10348889;28;20046;-79
2023/11/29 18:22:30;;;;;;;16.33;8.65;;;;;;;0.23;90.99;99136.22;10355886;28;20694;-79
2023/11/29 18:27:34;;;;;;;18.33;8.65;;;;;;;0.22;92.75;99137.19;10357749;28;20071;-81
2023/11/29 18:32:37;;;;;;;16.55;10.55;;;;;;;0.22;93.26;99123.97;10362422;28;20050;-79
2023/11/29 18:37:41;;;;;;;19.83;12.07;;;;;;;0.21;94.31;99134.63;10368738;28;20060;-78
2023/11/29 18:42:45;;;;;;;19.98;12.10;;;;;;;0.17;95.01;99136.59;10375886;28;20316;-79
2023/11/29 18:47:48;;;;;;;17.50;9.60;;;;;;;0.13;95.12;99143.81;10372516;28;20421;-77
2023/11/29 18:52:51;;;;;;;16.10;9.68;;;;;;;0.08;95.26;99142.38;10379800;28;20048;-79
2023/11/29 18:57:55;;;;;;;17.83;10.40;;;;;;;0.05;96.23;99137.28;10375722;28;20056;-79
2023/11/29 19:02:58;;;;;;;18.23;10.77;;;;;;;-0.06;96.95;99124.69;10359747;28;20051;-80
2023/11/29 19:08:02;;;;;;;16.88;10.95;;;;;;;-0.11;97.47;99134.66;10365890;28;20491;-80
2023/11/29 19:13:06;;;;;;;17.30;11.02;;;;;;;-0.24;98.73;99144.25;10366340;28;20054;-80
2023/11/29 19:18:09;;;;;;;17.38;11.05;;;;;;;-0.10;99.41;99157.50;10372983;28;20613;-78
2023/11/29 19:23:12;;;;;;;37.20;17.17;;;;;;;-0.02;99.70;99160.56;10372854;28;20049;-77
2023/11/29 19:28:35;;;;;;;19.50;11.00;;;;;;;-0.09;99.74;99140.72;10372806;28;20344;-77
2023/11/29 19:33:38;;;;;;;28.40;17.02;;;;;;;-0.04;100.00;99148.38;10350277;28;20045;-77
2023/11/29 19:38:41;;;;;;;22.02;10.95;;;;;;;-0.08;99.84;99150.38;10349414;28;20479;-77
2023/11/29 19:43:45;;;;;;;19.20;11.82;;;;;;;-0.20;100.00;99148.41;10358962;28;20052;-77
2023/11/29 19:48:48;;;;;;;19.75;11.63;;;;;;;-0.18;100.00;99149.16;10340098;28;20474;-78
2023/11/29 19:53:51;;;;;;;22.98;12.40;;;;;;;-0.16;100.00;99152.59;10351307;28;20057;-77
2023/11/29 19:58:55;;;;;;;20.88;12.80;;;;;;;-0.06;100.00;99148.47;10351192;28;20053;-77
2023/11/29 20:03:58;;;;;;;20.67;12.20;;;;;;;-0.15;100.00;99149.84;10352107;28;20953;-77
2023/11/29 20:09:02;;;;;;;21.17;12.50;;;;;;;-0.18;100.00;99154.44;10348953;28;20054;-76
2023/11/29 20:14:06;;;;;;;20.88;12.07;;;;;;;-0.20;100.00;99161.59;10355797;28;20999;-77
2023/11/29 20:19:21;;;;;;;27.05;13.07;;;;;;;-0.17;100.00;99159.63;10350262;28;20045;-77
2023/11/29 20:24:24;;;;;;;26.30;13.77;;;;;;;-0.16;100.00;99158.72;10352526;28;20053;-77
2023/11/29 20:29:28;;;;;;;26.70;14.65;;;;;;;-0.20;100.00;99157.16;10357627;28;20049;-77
2023/11/29 20:34:31;;;;;;;23.55;13.73;;;;;;;-0.22;100.00;99174.91;10360502;28;20501;-77
2023/11/29 20:39:49;;;;;;;31.67;16.90;;;;;;;-0.23;100.00;99169.69;10366015;28;20052;-77
2023/11/29 20:44:53;;;;;;;31.55;17.00;;;;;;;-0.24;100.00;99171.47;10368538;28;20049;-76
2023/11/29 20:49:56;;;;;;;32.80;17.65;;;;;;;-0.17;100.00;99166.69;10362682;28;21266;-76
2023/11/29 20:54:59;;;;;;;33.35;17.20;;;;;;;-0.16;100.00;99163.13;10367561;28;20056;-77
2023/11/29 21:00:05;;;;;;;30.58;16.75;;;;;;;-0.12;100.00;99170.78;10369206;28;20704;-76
2023/11/29 21:05:08;;;;;;;31.20;16.80;;;;;;;-0.35;100.00;99179.13;10362383;28;20133;-77
2023/11/29 21:10:11;;;;;;;36.05;18.80;;;;;;;-0.31;100.00;99176.22;10346055;28;20061;-78
2023/11/29 21:15:15;;;;;;;33.70;18.05;;;;;;;-0.42;100.00;99167.22;10357650;28;20049;-76
2023/11/29 21:20:18;;;;;;;28.20;16.58;;;;;;;-0.32;100.00;99173.69;10346834;28;20045;-77
2023/11/29 21:25:21;;;;;;;32.78;17.48;;;;;;;-0.20;100.00;99156.31;10365066;28;20041;-77
2023/11/29 21:30:25;;;;;;;32.78;17.73;;;;;;;-0.11;100.00;99156.66;10368952;28;20049;-77
2023/11/29 21:35:28;;;;;;;32.85;17.15;;;;;;;-0.08;100.00;99155.63;10369943;28;20072;-77
2023/11/29 21:40:31;;;;;;;26.80;15.02;;;;;;;-0.18;100.00;99154.44;10368902;28;20049;-77
2023/11/29 21:45:35;;;;;;;25.52;15.50;;;;;;;-0.29;100.00;99158.53;10376594;28;20471;-77
2023/11/29 21:50:38;;;;;;;29.35;15.35;;;;;;;-0.36;100.00;99165.06;10381129;28;20045;-78
2023/11/29 21:55:41;;;;;;;26.27;14.75;;;;;;;-0.32;100.00;99155.22;10381797;28;20061;-78
2023/11/29 22:00:45;;;;;;;30.95;15.20;;;;;;;-0.43;100.00;99168.16;10378192;28;20851;-78
2023/11/29 22:05:48;;;;;;;29.48;14.40;;;;;;;-0.45;100.00;99170.88;10369263;28;20056;-78
2023/11/29 22:10:51;;;;;;;28.23;14.25;;;;;;;-0.45;100.00;99170.88;10362832;28;20037;-78
2023/11/29 22:15:55;;;;;;;27.90;13.80;;;;;;;-0.47;100.00;99169.25;10370478;28;20053;-78
2023/11/29 22:20:58;;;;;;;25.75;13.93;;;;;;;-0.29;100.00;99178.78;10352288;28;20149;-78
2023/11/29 22:26:01;;;;;;;27.60;14.45;;;;;;;-0.27;100.00;99176.94;10356084;28;20187;-78
2023/11/29 22:31:09;;;;;;;29.65;14.38;;;;;;;-0.23;100.00;99188.16;10357447;28;20042;-78
2023/11/29 22:36:14;;;;;;;26.75;14.63;;;;;;;-0.18;100.00;99184.31;10356804;28;20469;-78
2023/11/29 22:41:24;;;;;;;27.38;15.38;;;;;;;-0.12;100.00;99180.50;10358158;28;20049;-79
2023/11/29 22:46:30;;;;;;;33.80;14.73;;;;;;;-0.12;100.00;99185.78;10361404;28;20057;-78
2023/11/29 22:51:34;;;;;;;27.38;15.80;;;;;;;-0.16;100.00;99194.81;10375762;28;21180;-78
2023/11/29 22:56:38;;;;;;;29.52;14.65;;;;;;;-0.22;100.00;99198.66;10364703;28;20042;-78
2023/11/29 23:01:42;;;;;;;28.65;15.82;;;;;;;-0.24;100.00;99199.66;10363237;28;20537;-78